Nearby METAR Reports

 

KMQS - Coatesville, Pennsylvania, USA
Distance from station: ENE 6mi, 10km
Updated: Sun, 24-Sep-2017 7:55am EDT
Clear
Clear
 Wind from calm
Wind: Calm
Temperature: 68°F , 20°C
Dew Point: 63°F , 17°C
Humidity: 83%
Barometer: 30.13 inHg , 1020.3 hPa
Clouds: Clear
Visibility: 10 miles , 16 km
2017/09/24 11:55 KMQS 241155Z AUTO 00000KT 10SM CLR 20/17 A3013 RMK AO2
KLNS - Lancaster, Pennsylvania, USA
Distance from station: NW 21mi, 33km
Updated: Sun, 24-Sep-2017 7:53am EDT
Clear
Clear
 Wind from W
Wind: W 7 mph , 11 km/h
Temperature: 64°F , 18°C
Dew Point: 63°F , 17°C
Humidity: 94%
Barometer: 30.12 inHg , 1020 hPa
Clouds: Clear
Visibility: 7 miles , 11 km
2017/09/24 11:53 KLNS 241153Z 27006KT 7SM CLR 18/17 A3012 RMK AO2 SLP198 T01830172 10189 20167 51010
 
KILG - Wilmington, Delaware, USA
Distance from station: SE 28mi, 45km
Updated: Sun, 24-Sep-2017 7:51am EDT
Clear
Clear
 Wind from N
Wind: N 6 mph , 9 km/h
Temperature: 70°F , 21°C
Dew Point: 64°F , 18°C
Humidity: 83%
Barometer: 30.09 inHg , 1019 hPa
Clouds: Clear
Visibility: 10 miles , 16 km
2017/09/24 11:51 KILG 241151Z 36005KT 10SM CLR 21/18 A3009 RMK AO2 SLP190 T02060178 10206 20178 51011 $
KRDG - Reading, Pennsylvania, USA
Distance from station: N 29mi, 47km
Updated: Sun, 24-Sep-2017 7:54am EDT
Clear
Clear
 Wind from calm
Wind: Calm
Temperature: 64°F , 18°C
Dew Point: 63°F , 17°C
Humidity: 94%
Barometer: 30.12 inHg , 1020 hPa
Clouds: Clear
Visibility: 10 miles , 16 km
2017/09/24 11:54 KRDG 241154Z 00000KT 10SM CLR 18/17 A3012 RMK AO2 SLP201 T01830172 10189 20167 51012 $
 
KPTW - Pottstown, Pennsylvania, USA
Distance from station: NE 30mi, 48km
Updated: Sun, 24-Sep-2017 7:54am EDT
Clear
Clear
 Wind from calm
Wind: Calm
Temperature: 64°F , 18°C
Dew Point: 63°F , 17°C
Humidity: 94%
Barometer: 30.13 inHg , 1020.3 hPa
Clouds: Clear
Visibility: 7 miles , 11 km
2017/09/24 11:54 KPTW 241154Z AUTO 00000KT 7SM CLR 18/17 A3013 RMK AO2 SLP200 T01830172 10183 20156 53013 $